Time;durP1;ratioP1;P1;durP2;ratioP2;P2;SDS_P1;SDS_P2;PMS_P1;PMS_P2;Temp;Humidity;BMP_temperature;BMP_pressure;BME280_temperature;BME280_humidity;BME280_pressure;Samples;Min_cycle;Max_cycle;Signal;HPM_P1;HPM_P2
2022/03/10 00:00:13;;;;;;;24.47;14.13;;;;;;;0.67;68.67;98914.94;5069246;28;20234;-72
2022/03/10 00:02:42;;;;;;;30.93;15.37;;;;;;;0.71;67.96;98923.53;5059376;28;20219;-72
2022/03/10 00:05:11;;;;;;;22.77;13.97;;;;;;;0.69;67.98;98927.94;5068100;28;20324;-72
2022/03/10 00:07:37;;;;;;;22.23;13.47;;;;;;;0.69;68.20;98927.94;5069433;28;20211;-72
2022/03/10 00:10:07;;;;;;;27.00;14.57;;;;;;;0.69;68.44;98938.34;5068713;28;20223;-72
2022/03/10 00:12:34;;;;;;;24.40;13.70;;;;;;;0.58;68.93;98930.72;5065717;28;20269;-72
2022/03/10 00:15:01;;;;;;;23.33;13.90;;;;;;;0.50;69.98;98937.78;5066624;28;20216;-72
2022/03/10 00:17:28;;;;;;;24.43;14.43;;;;;;;0.48;70.47;98929.16;5069325;28;20212;-72
2022/03/10 00:19:54;;;;;;;28.10;15.17;;;;;;;0.47;70.46;98940.44;5065165;28;20233;-73
2022/03/10 00:22:20;;;;;;;25.90;14.33;;;;;;;0.51;70.60;98938.66;5065564;28;20604;-73
2022/03/10 00:24:47;;;;;;;25.17;14.73;;;;;;;0.42;70.61;98944.84;5067760;28;20572;-72
2022/03/10 00:27:15;;;;;;;25.90;13.47;;;;;;;0.32;70.85;98943.28;5069081;28;20215;-72
2022/03/10 00:29:41;;;;;;;24.17;14.33;;;;;;;0.24;70.68;98939.94;5069097;28;20218;-72
2022/03/10 00:32:08;;;;;;;24.50;13.73;;;;;;;0.08;71.82;98946.25;5064940;28;20598;-72
2022/03/10 00:34:35;;;;;;;23.77;14.27;;;;;;;0.11;72.11;98959.22;5067156;28;20241;-72
2022/03/10 00:37:02;;;;;;;25.23;14.73;;;;;;;0.12;71.66;98958.31;5068875;28;20305;-72
2022/03/10 00:39:28;;;;;;;23.20;14.23;;;;;;;0.11;71.76;98950.53;5068738;28;20214;-72
2022/03/10 00:41:55;;;;;;;27.07;14.43;;;;;;;0.18;72.39;98955.63;5049384;28;20254;-72
2022/03/10 00:44:23;;;;;;;29.30;16.17;;;;;;;0.23;73.27;98959.03;5064047;28;20226;-72
2022/03/10 00:46:49;;;;;;;29.97;15.63;;;;;;;0.28;74.12;98961.56;5068654;28;20587;-72
2022/03/10 00:49:16;;;;;;;27.10;15.53;;;;;;;0.29;73.97;98958.94;5068618;28;20219;-73
2022/03/10 00:51:42;;;;;;;28.63;15.77;;;;;;;0.19;74.90;98956.50;5065095;28;20589;-73
2022/03/10 00:54:09;;;;;;;26.33;15.83;;;;;;;0.08;75.46;98948.84;5066066;28;20215;-73
2022/03/10 00:56:35;;;;;;;25.73;15.00;;;;;;;0.02;76.67;98956.72;5068603;28;20217;-72
2022/03/10 00:59:01;;;;;;;25.97;15.50;;;;;;;-0.01;77.06;98953.31;5068341;28;20211;-72
2022/03/10 01:01:29;;;;;;;26.50;15.67;;;;;;;0.03;77.27;98955.88;5065372;28;20243;-73
2022/03/10 01:03:56;;;;;;;24.20;14.73;;;;;;;-0.03;77.34;98953.38;5065463;28;20214;-73
2022/03/10 01:06:22;;;;;;;24.73;15.17;;;;;;;-0.01;77.02;98949.00;5068302;28;20211;-73
2022/03/10 01:08:49;;;;;;;29.17;16.00;;;;;;;0.00;77.75;98949.88;5066222;28;20672;-72
2022/03/10 01:11:15;;;;;;;24.97;15.23;;;;;;;-0.06;77.82;98956.00;5065622;28;20219;-73
2022/03/10 01:13:42;;;;;;;29.13;16.67;;;;;;;-0.12;78.65;98950.88;5064491;28;20214;-73
2022/03/10 01:16:08;;;;;;;33.53;17.90;;;;;;;-0.23;78.90;98951.94;5069871;28;20212;-72
2022/03/10 01:18:36;;;;;;;29.07;17.30;;;;;;;-0.38;79.05;98953.88;5062059;28;20217;-72
2022/03/10 01:21:02;;;;;;;29.37;16.70;;;;;;;-0.45;79.36;98950.47;5066007;28;20236;-72
2022/03/10 01:23:29;;;;;;;27.97;17.10;;;;;;;-0.54;81.14;98950.63;5063963;28;20675;-72
2022/03/10 01:25:55;;;;;;;28.13;15.80;;;;;;;-0.65;81.68;98954.19;5047236;28;20697;-72
2022/03/10 01:28:22;;;;;;;27.47;15.97;;;;;;;-0.61;82.38;98950.69;5067837;28;20300;-72
2022/03/10 01:30:48;;;;;;;28.63;16.63;;;;;;;-0.68;83.12;98943.88;5066622;28;20218;-72
2022/03/10 01:33:15;;;;;;;29.90;17.27;;;;;;;-0.69;83.44;98942.16;5062429;28;20588;-73
2022/03/10 01:35:43;;;;;;;31.23;17.60;;;;;;;-0.65;83.63;98941.22;5067315;28;20222;-73
2022/03/10 01:38:10;;;;;;;30.70;17.47;;;;;;;-0.63;83.95;98939.50;5070058;28;20222;-72
2022/03/10 01:40:37;;;;;;;28.33;16.47;;;;;;;-0.71;85.14;98936.09;5071050;28;20245;-72
2022/03/10 01:43:03;;;;;;;27.93;16.83;;;;;;;-0.70;84.89;98945.59;5068939;28;20213;-72
2022/03/10 01:45:30;;;;;;;27.67;16.03;;;;;;;-0.73;85.45;98941.34;5071311;28;20220;-71
2022/03/10 01:47:56;;;;;;;27.53;17.00;;;;;;;-0.70;84.46;98935.22;5072570;28;20222;-72
2022/03/10 01:50:23;;;;;;;29.83;17.33;;;;;;;-0.67;84.94;98935.19;5071190;28;20237;-72
2022/03/10 01:52:51;;;;;;;29.43;17.77;;;;;;;-0.67;85.55;98936.06;5068039;28;20302;-72
2022/03/10 01:55:18;;;;;;;28.43;16.90;;;;;;;-0.65;86.08;98936.03;5070012;28;20218;-72
2022/03/10 01:57:44;;;;;;;28.17;17.10;;;;;;;-0.61;85.68;98938.56;5055312;28;20284;-72
2022/03/10 02:00:13;;;;;;;32.33;18.10;;;;;;;-0.55;86.22;98928.09;5059338;28;20221;-73
2022/03/10 02:02:39;;;;;;;32.57;17.63;;;;;;;-0.51;86.33;98929.78;5054612;28;20211;-73
2022/03/10 02:05:07;;;;;;;29.47;16.83;;;;;;;-0.50;85.91;98935.84;5059227;28;20220;-73
2022/03/10 02:10:19;;;;;;;28.97;16.57;;;;;;;-0.47;85.98;98934.06;5057060;28;20221;-72
2022/03/10 02:12:47;;;;;;;30.57;16.47;;;;;;;-0.45;86.21;98932.31;5061192;28;20214;-71
2022/03/10 02:18:00;;;;;;;31.40;17.27;;;;;;;-0.51;86.06;98934.16;5062817;28;20333;-73
2022/03/10 02:20:26;;;;;;;30.47;18.13;;;;;;;-0.50;87.24;98935.84;5063126;28;20703;-73
2022/03/10 02:22:54;;;;;;;28.23;16.87;;;;;;;-0.49;87.09;98942.75;5066177;28;20223;-73
2022/03/10 02:25:22;;;;;;;28.30;16.90;;;;;;;-0.44;85.68;98940.97;5066847;28;20572;-72
2022/03/10 02:27:53;;;;;;;28.27;16.80;;;;;;;-0.49;85.67;98937.56;5064757;28;20213;-72
2022/03/10 02:30:20;;;;;;;30.27;17.13;;;;;;;-0.47;84.56;98936.66;5063058;28;20690;-72
2022/03/10 02:32:47;;;;;;;26.97;16.40;;;;;;;-0.57;85.20;98939.41;5067034;28;20208;-72
2022/03/10 02:35:15;;;;;;;28.33;16.87;;;;;;;-0.53;86.04;98941.06;5066993;28;20219;-72
2022/03/10 02:37:41;;;;;;;29.10;17.03;;;;;;;-0.49;85.94;98942.75;5065675;28;20213;-72
2022/03/10 02:40:11;;;;;;;29.43;17.07;;;;;;;-0.54;86.46;98945.44;5063349;28;20222;-72
2022/03/10 02:42:38;;;;;;;28.37;16.67;;;;;;;-0.48;86.32;98940.16;5046063;28;20255;-72
2022/03/10 02:45:06;;;;;;;32.53;17.10;;;;;;;-0.45;85.14;98945.28;5066974;28;20576;-71
2022/03/10 02:47:32;;;;;;;25.23;16.37;;;;;;;-0.53;84.92;98947.13;5065281;28;20210;-72
2022/03/10 02:49:59;;;;;;;30.43;16.93;;;;;;;-0.62;86.00;98949.81;5062799;28;20213;-72
2022/03/10 02:52:25;;;;;;;33.37;17.10;;;;;;;-0.61;86.14;98948.09;5064565;28;20218;-72
2022/03/10 02:54:52;;;;;;;26.80;16.50;;;;;;;-0.65;85.75;98951.59;5066803;28;20579;-73
2022/03/10 02:57:20;;;;;;;30.10;16.70;;;;;;;-0.63;85.51;98965.44;5065803;28;20235;-72
2022/03/10 02:59:47;;;;;;;27.70;16.57;;;;;;;-0.69;85.40;98960.31;5062885;28;20229;-72
2022/03/10 03:02:13;;;;;;;27.57;17.03;;;;;;;-0.80;85.28;98957.00;5066203;28;20250;-72
2022/03/10 03:04:40;;;;;;;28.50;15.87;;;;;;;-0.81;85.87;98955.28;5066836;28;20222;-72
2022/03/10 03:07:06;;;;;;;26.07;15.90;;;;;;;-0.83;85.56;98959.59;5065853;28;20217;-72
2022/03/10 03:09:33;;;;;;;27.53;16.23;;;;;;;-0.89;85.87;98964.84;5063134;28;20219;-72
2022/03/10 03:11:59;;;;;;;27.43;15.53;;;;;;;-0.96;85.76;98966.69;5053424;28;20219;-72
2022/03/10 03:14:27;;;;;;;26.60;16.03;;;;;;;-1.00;85.96;98953.75;5066644;28;20215;-72
2022/03/10 03:16:56;;;;;;;26.57;15.87;;;;;;;-1.01;86.18;98967.59;5066339;28;20218;-72
2022/03/10 03:19:22;;;;;;;33.00;16.37;;;;;;;-0.93;87.66;98970.97;5061088;28;20224;-72
2022/03/10 03:21:49;;;;;;;29.90;17.43;;;;;;;-0.87;88.10;98973.50;5068809;28;20243;-72
2022/03/10 03:24:15;;;;;;;28.53;16.73;;;;;;;-0.89;88.54;98977.84;5059070;28;20266;-72
2022/03/10 03:26:42;;;;;;;28.47;16.77;;;;;;;-0.93;88.01;98976.16;5066535;28;20598;-73
2022/03/10 03:29:09;;;;;;;28.03;16.57;;;;;;;-1.09;87.37;98969.41;5062486;28;20665;-73
2022/03/10 03:31:37;;;;;;;28.43;16.63;;;;;;;-1.17;86.98;98976.41;5064499;28;20217;-72
2022/03/10 03:34:09;;;;;;;29.30;16.23;;;;;;;-1.25;86.51;98978.19;5066396;28;20603;-72
2022/03/10 03:36:37;;;;;;;30.07;15.93;;;;;;;-1.39;85.85;98975.75;5065557;28;20255;-72
2022/03/10 03:39:03;;;;;;;31.13;17.07;;;;;;;-1.59;86.68;98976.78;5064867;28;20214;-73
2022/03/10 03:41:30;;;;;;;30.77;17.23;;;;;;;-1.64;88.01;98973.38;5068963;28;20264;-71
2022/03/10 03:43:56;;;;;;;30.70;17.23;;;;;;;-1.72;88.85;98975.16;5070125;28;20222;-71
2022/03/10 03:46:23;;;;;;;29.20;16.63;;;;;;;-1.77;89.34;98982.13;5067910;28;20219;-72
2022/03/10 03:48:51;;;;;;;30.63;17.20;;;;;;;-1.87;91.73;98991.69;5066107;28;20221;-72
2022/03/10 03:51:17;;;;;;;29.13;16.87;;;;;;;-1.86;91.90;98987.34;5068395;28;20226;-72
2022/03/10 03:53:44;;;;;;;29.60;16.63;;;;;;;-1.82;91.88;98991.63;5069800;28;20223;-72
2022/03/10 03:56:10;;;;;;;30.90;18.37;;;;;;;-1.83;92.42;98997.69;5069806;28;20207;-72
2022/03/10 03:58:37;;;;;;;28.77;16.27;;;;;;;-1.80;92.48;98997.66;5065513;28;20688;-71
2022/03/10 04:01:03;;;;;;;30.70;17.23;;;;;;;-1.77;92.34;98987.28;5067747;28;20250;-72
2022/03/10 04:03:30;;;;;;;29.53;17.10;;;;;;;-1.77;92.76;98993.31;5069648;28;20220;-72
2022/03/10 04:05:58;;;;;;;31.43;18.20;;;;;;;-1.65;93.36;98994.97;5069450;28;20217;-72
2022/03/10 04:08:25;;;;;;;32.30;18.93;;;;;;;-1.63;94.43;98996.69;5066002;28;20582;-72
2022/03/10 04:10:52;;;;;;;32.67;18.93;;;;;;;-1.69;94.34;98996.72;5065176;28;20215;-72
2022/03/10 04:13:20;;;;;;;31.83;18.10;;;;;;;-1.76;94.83;98994.19;5069511;28;20222;-71
2022/03/10 04:15:47;;;;;;;32.20;18.03;;;;;;;-1.78;94.81;98996.78;5069298;28;20218;-71
2022/03/10 04:18:13;;;;;;;29.53;17.63;;;;;;;-1.76;94.31;99002.84;5063392;28;20221;-71
2022/03/10 04:20:40;;;;;;;32.43;17.70;;;;;;;-1.79;94.61;99007.19;5066967;28;20212;-71
2022/03/10 04:23:08;;;;;;;29.60;17.90;;;;;;;-1.80;95.54;99002.84;5069169;28;20239;-71
2022/03/10 04:25:34;;;;;;;33.03;18.33;;;;;;;-1.81;95.64;99006.31;5065838;28;20213;-71
2022/03/10 04:28:00;;;;;;;30.47;17.27;;;;;;;-1.75;95.52;99006.28;5059238;28;20220;-72
2022/03/10 04:30:27;;;;;;;32.47;17.37;;;;;;;-1.79;95.32;99002.00;5066310;28;20571;-73
2022/03/10 04:32:53;;;;;;;34.80;18.27;;;;;;;-1.84;95.60;99001.16;5068673;28;20695;-72
2022/03/10 04:35:21;;;;;;;30.53;17.80;;;;;;;-1.89;95.31;98988.22;5069040;28;20212;-73
2022/03/10 04:37:50;;;;;;;30.57;16.80;;;;;;;-1.89;95.88;98997.75;5064822;28;20215;-72
2022/03/10 04:40:18;;;;;;;31.27;19.03;;;;;;;-1.96;96.83;98996.91;5066029;28;20217;-72
2022/03/10 04:42:44;;;;;;;29.73;18.30;;;;;;;-1.83;96.22;98995.94;5068411;28;20241;-72
2022/03/10 04:45:11;;;;;;;31.30;17.70;;;;;;;-1.81;96.23;99001.13;5068760;28;20213;-73
2022/03/10 04:47:39;;;;;;;34.43;19.37;;;;;;;-1.89;96.97;98995.16;5066200;28;20227;-73
2022/03/10 04:50:06;;;;;;;33.57;17.03;;;;;;;-1.92;97.09;99006.38;5065229;28;20272;-72
2022/03/10 04:52:33;;;;;;;30.00;16.80;;;;;;;-1.92;96.83;98992.56;5068362;28;20221;-72
2022/03/10 04:55:00;;;;;;;35.50;18.60;;;;;;;-1.95;96.98;99000.38;5068334;28;20705;-72
2022/03/10 04:57:28;;;;;;;35.47;19.03;;;;;;;-2.01;96.25;98987.47;5065815;28;20216;-72
2022/03/10 04:59:54;;;;;;;32.87;18.77;;;;;;;-2.12;95.74;98987.53;5064933;28;20670;-72
2022/03/10 05:02:22;;;;;;;32.80;17.23;;;;;;;-2.13;95.77;98987.53;5068514;28;20249;-72
2022/03/10 05:04:49;;;;;;;29.70;17.80;;;;;;;-2.11;95.10;98991.84;5066423;28;20228;-73
2022/03/10 05:07:15;;;;;;;29.33;17.40;;;;;;;-2.14;94.71;98983.22;5066195;28;20220;-73
2022/03/10 05:09:42;;;;;;;30.93;17.87;;;;;;;-2.23;95.35;98988.44;5064786;28;20208;-72
2022/03/10 05:12:09;;;;;;;33.00;18.07;;;;;;;-2.26;94.88;98985.88;5068349;28;20211;-73
2022/03/10 05:14:37;;;;;;;28.73;16.73;;;;;;;-2.39;94.61;98979.06;5068099;28;20304;-72
2022/03/10 05:17:04;;;;;;;32.73;17.17;;;;;;;-2.39;93.33;98985.06;5065912;28;20223;-73
2022/03/10 05:19:30;;;;;;;32.23;17.67;;;;;;;-2.40;90.23;98973.00;5064405;28;20212;-73
2022/03/10 05:21:57;;;;;;;33.17;16.67;;;;;;;-2.57;88.53;98973.97;5068143;28;20258;-72
2022/03/10 05:24:24;;;;;;;31.37;17.93;;;;;;;-2.67;88.23;98982.63;5067923;28;20562;-72
2022/03/10 05:26:50;;;;;;;31.03;16.23;;;;;;;-2.76;89.21;98972.31;5066405;28;20220;-72
2022/03/10 05:29:17;;;;;;;32.13;17.00;;;;;;;-2.81;89.53;98974.03;5062054;28;20666;-73
2022/03/10 05:31:45;;;;;;;29.43;15.83;;;;;;;-2.89;89.65;98975.81;5067658;28;20555;-72
2022/03/10 05:34:11;;;;;;;27.53;14.83;;;;;;;-2.97;90.63;98977.53;5067727;28;20216;-72
2022/03/10 05:36:37;;;;;;;23.30;14.33;;;;;;;-3.00;90.75;98973.22;5066675;28;20222;-72
2022/03/10 05:39:05;;;;;;;25.77;14.77;;;;;;;-3.10;92.43;98975.84;5063678;28;20670;-73
2022/03/10 05:41:33;;;;;;;29.87;15.83;;;;;;;-3.15;94.17;98978.44;5058769;28;20634;-73
2022/03/10 05:44:00;;;;;;;24.70;14.43;;;;;;;-3.05;95.51;98974.97;5067337;28;20212;-73
2022/03/10 05:46:26;;;;;;;28.97;16.30;;;;;;;-2.97;95.55;98977.53;5066746;28;20281;-72
2022/03/10 05:48:54;;;;;;;26.23;15.00;;;;;;;-2.88;96.01;98983.53;5063805;28;20216;-73
2022/03/10 05:51:21;;;;;;;28.00;15.13;;;;;;;-2.79;96.54;98993.88;5066777;28;20211;-72
2022/03/10 05:53:49;;;;;;;29.63;16.10;;;;;;;-2.72;96.85;98984.34;5067486;28;20213;-74
2022/03/10 05:56:15;;;;;;;26.37;15.87;;;;;;;-2.57;97.04;98994.66;5064969;28;20211;-72
2022/03/10 05:58:42;;;;;;;29.87;16.23;;;;;;;-2.51;97.00;99004.97;5063276;28;20219;-72
2022/03/10 06:01:08;;;;;;;27.57;17.13;;;;;;;-2.48;97.43;98999.78;5065527;28;20251;-72
2022/03/10 06:03:35;;;;;;;25.33;15.17;;;;;;;-2.43;97.20;99000.63;5066996;28;20239;-73
2022/03/10 06:06:03;;;;;;;26.10;16.37;;;;;;;-2.34;96.76;98993.69;5067095;28;20591;-73
2022/03/10 06:08:29;;;;;;;26.83;15.20;;;;;;;-2.25;96.69;98997.94;5063449;28;20563;-73
2022/03/10 06:10:56;;;;;;;30.00;16.93;;;;;;;-2.16;96.15;98993.59;5066002;28;20597;-73
2022/03/10 06:13:23;;;;;;;27.47;16.83;;;;;;;-2.11;96.00;99001.31;5066973;28;20215;-73
2022/03/10 06:15:49;;;;;;;28.33;16.70;;;;;;;-2.08;95.77;98996.97;5066963;28;20577;-72
2022/03/10 06:18:16;;;;;;;27.90;16.23;;;;;;;-2.06;96.35;98996.97;5061422;28;20225;-73
2022/03/10 06:20:42;;;;;;;28.00;16.27;;;;;;;-2.02;96.21;99003.88;5065403;28;20227;-73
2022/03/10 06:23:10;;;;;;;29.13;17.03;;;;;;;-1.99;95.93;98993.47;5065556;28;20232;-72
2022/03/10 06:25:37;;;;;;;27.80;16.57;;;;;;;-1.88;94.91;98996.88;5067087;28;20295;-72
2022/03/10 06:28:04;;;;;;;25.93;15.70;;;;;;;-1.85;94.25;98994.28;5063299;28;20238;-72
2022/03/10 06:30:31;;;;;;;27.40;15.77;;;;;;;-1.74;94.14;98997.63;5064684;28;20686;-72
2022/03/10 06:32:58;;;;;;;30.97;16.43;;;;;;;-1.56;92.25;98997.47;5066999;28;20291;-72
2022/03/10 06:35:24;;;;;;;32.10;18.00;;;;;;;-1.46;91.52;98987.06;5066972;28;20211;-73
2022/03/10 06:37:51;;;;;;;31.80;18.87;;;;;;;-1.45;91.61;98990.50;5063309;28;20216;-73
2022/03/10 06:40:19;;;;;;;33.53;18.37;;;;;;;-1.43;91.93;99004.28;5064321;28;20228;-73
2022/03/10 06:42:46;;;;;;;29.90;16.57;;;;;;;-1.26;91.47;98999.81;5066903;28;20263;-73
2022/03/10 06:45:12;;;;;;;32.43;18.63;;;;;;;-1.24;91.37;99005.88;5066957;28;20208;-72
2022/03/10 06:47:40;;;;;;;34.23;18.77;;;;;;;-1.01;90.20;98998.72;5062724;28;20221;-73
2022/03/10 06:50:07;;;;;;;34.23;17.93;;;;;;;-0.80;88.86;99003.69;5063539;28;20225;-72
2022/03/10 06:52:34;;;;;;;30.50;18.30;;;;;;;-0.67;87.29;99006.16;5066530;28;20220;-72
2022/03/10 06:55:01;;;;;;;30.83;17.80;;;;;;;-0.58;87.00;99006.03;5066732;28;20235;-72
2022/03/10 06:57:28;;;;;;;29.77;17.27;;;;;;;-0.45;86.78;99002.41;5057617;28;20567;-72
2022/03/10 06:59:55;;;;;;;30.73;17.90;;;;;;;-0.28;85.63;99004.78;5063906;28;20219;-72
2022/03/10 07:02:22;;;;;;;32.70;17.47;;;;;;;-0.18;84.79;99001.22;5066896;28;20256;-72
2022/03/10 07:04:49;;;;;;;29.83;18.93;;;;;;;-0.13;85.25;99015.84;5066536;28;20222;-72
2022/03/10 07:07:16;;;;;;;30.37;17.80;;;;;;;-0.03;84.01;99007.94;5063940;28;20583;-72
2022/03/10 07:09:43;;;;;;;32.23;19.30;;;;;;;0.03;83.82;99014.78;5063437;28;20216;-72
2022/03/10 07:12:10;;;;;;;31.57;18.50;;;;;;;0.19;83.00;99021.50;5067517;28;20306;-72
2022/03/10 07:14:38;;;;;;;30.77;17.70;;;;;;;0.28;82.90;99022.22;5068975;28;20219;-72
2022/03/10 07:17:05;;;;;;;27.90;16.63;;;;;;;0.38;82.32;99021.19;5068125;28;20215;-72
2022/03/10 07:19:32;;;;;;;27.23;17.20;;;;;;;0.50;82.20;99023.59;5057144;28;20214;-73
2022/03/10 07:21:58;;;;;;;25.40;17.37;;;;;;;0.57;81.66;99033.00;5070374;28;20222;-73
2022/03/10 07:24:25;;;;;;;29.73;18.13;;;;;;;0.70;81.00;99034.56;5070419;28;20214;-72
2022/03/10 07:26:52;;;;;;;30.43;17.37;;;;;;;0.83;80.78;99036.09;5068206;28;20221;-72
2022/03/10 07:29:18;;;;;;;31.50;17.87;;;;;;;0.96;80.71;99036.72;5066346;28;20220;-72
2022/03/10 07:31:46;;;;;;;34.47;18.03;;;;;;;1.12;79.33;99032.97;5043628;28;20217;-71
2022/03/10 07:34:13;;;;;;;32.07;17.63;;;;;;;1.35;78.11;99036.03;5069936;28;20584;-72
2022/03/10 07:36:40;;;;;;;30.23;18.40;;;;;;;1.48;77.51;99034.91;5068366;28;20631;-71
2022/03/10 07:39:07;;;;;;;32.07;18.00;;;;;;;1.66;77.08;99042.38;5065970;28;20219;-72
2022/03/10 07:41:33;;;;;;;30.50;18.27;;;;;;;1.82;75.70;99043.75;5068193;28;20223;-72
2022/03/10 07:44:00;;;;;;;30.40;17.83;;;;;;;1.98;74.40;99048.66;5066371;28;20711;-72
2022/03/10 07:46:26;;;;;;;32.10;18.40;;;;;;;2.01;74.29;99040.75;5067985;28;20218;-72
2022/03/10 07:48:54;;;;;;;30.07;17.27;;;;;;;2.13;74.52;99045.72;5066264;28;20581;-72
2022/03/10 07:51:21;;;;;;;32.50;17.83;;;;;;;2.27;74.09;99048.88;5069274;28;20208;-72
2022/03/10 07:53:47;;;;;;;35.30;18.83;;;;;;;2.42;72.73;99043.34;5069778;28;20214;-72
2022/03/10 07:56:14;;;;;;;27.57;16.83;;;;;;;2.53;72.71;99041.34;5068855;28;20215;-72
2022/03/10 07:58:40;;;;;;;27.97;17.20;;;;;;;2.57;72.64;99042.97;5066062;28;20599;-71
2022/03/10 08:01:07;;;;;;;30.30;17.70;;;;;;;2.65;72.27;99041.06;5068586;28;20238;-71
2022/03/10 08:03:33;;;;;;;30.47;17.80;;;;;;;2.75;71.55;99039.09;5069508;28;20242;-71
2022/03/10 08:06:02;;;;;;;27.97;17.47;;;;;;;2.89;71.52;99039.59;5069202;28;20219;-71
2022/03/10 08:08:28;;;;;;;26.67;16.63;;;;;;;3.01;70.26;99034.91;5064030;28;20268;-72
2022/03/10 08:10:55;;;;;;;29.13;18.00;;;;;;;3.10;69.73;99039.94;5063727;28;20300;-72
2022/03/10 08:13:26;;;;;;;29.47;17.63;;;;;;;3.29;69.65;99041.16;5069169;28;20218;-72
2022/03/10 08:15:52;;;;;;;27.17;17.57;;;;;;;3.58;67.46;99036.03;5068732;28;20211;-71
2022/03/10 08:18:19;;;;;;;30.67;17.57;;;;;;;3.83;64.46;99044.91;5063754;28;20577;-72
2022/03/10 08:20:46;;;;;;;24.53;16.50;;;;;;;3.98;65.16;99034.00;5068046;28;20222;-72
2022/03/10 08:23:15;;;;;;;25.93;16.53;;;;;;;4.17;64.52;99035.19;5068579;28;20697;-72
2022/03/10 08:25:41;;;;;;;26.60;16.33;;;;;;;4.30;62.85;99033.06;5068350;28;20212;-72
2022/03/10 08:28:08;;;;;;;26.27;15.07;;;;;;;4.51;60.25;99030.66;5065394;28;20208;-72
2022/03/10 08:30:34;;;;;;;23.73;14.70;;;;;;;4.61;60.08;99025.97;5067812;28;20208;-72
2022/03/10 08:33:01;;;;;;;23.83;13.90;;;;;;;4.79;58.54;99013.19;5067338;28;20216;-72
2022/03/10 08:35:28;;;;;;;23.03;14.87;;;;;;;4.80;60.05;99009.66;5068923;28;20599;-71
2022/03/10 08:37:54;;;;;;;23.23;14.80;;;;;;;4.93;59.32;99010.09;5065192;28;20228;-71
2022/03/10 08:40:23;;;;;;;21.80;14.30;;;;;;;5.08;59.36;99015.66;5067180;28;20236;-71
2022/03/10 08:42:50;;;;;;;21.50;14.73;;;;;;;5.21;58.94;99010.88;5068479;28;20236;-71
2022/03/10 08:45:17;;;;;;;23.47;13.53;;;;;;;5.38;58.03;99004.16;5068813;28;20217;-72
2022/03/10 08:47:44;;;;;;;23.37;13.63;;;;;;;5.55;56.84;99004.41;5055846;28;20218;-71
2022/03/10 08:50:12;;;;;;;23.23;14.60;;;;;;;5.62;57.27;99003.28;5066072;28;20221;-72
2022/03/10 08:52:39;;;;;;;17.47;11.70;;;;;;;5.83;56.61;99005.19;5067705;28;20243;-72
2022/03/10 08:55:08;;;;;;;19.67;12.73;;;;;;;5.92;57.54;98999.59;5067013;28;20250;-71
2022/03/10 08:57:36;;;;;;;21.00;14.20;;;;;;;6.04;56.85;99007.00;5048618;28;20211;-72
2022/03/10 09:00:04;;;;;;;21.13;13.73;;;;;;;6.16;57.46;98998.66;5039607;28;20218;-71
2022/03/10 09:02:31;;;;;;;18.50;12.10;;;;;;;6.24;57.14;98996.59;5041540;28;20214;-72
2022/03/10 09:04:58;;;;;;;24.90;14.07;;;;;;;6.43;58.55;98992.38;5055513;28;20685;-71
2022/03/10 09:07:24;;;;;;;19.90;13.07;;;;;;;6.56;58.62;98987.47;5055191;28;20242;-72
2022/03/10 09:09:51;;;;;;;17.40;11.73;;;;;;;6.78;57.02;98989.19;5056157;28;20219;-71
2022/03/10 09:12:17;;;;;;;18.83;11.73;;;;;;;6.96;55.65;98983.16;5054096;28;20225;-70
2022/03/10 09:14:45;;;;;;;20.90;12.43;;;;;;;7.20;55.92;98976.88;5048896;28;20234;-71
2022/03/10 09:17:13;;;;;;;17.90;11.40;;;;;;;7.25;54.84;98982.81;5053206;28;20213;-70
2022/03/10 09:19:39;;;;;;;19.33;11.67;;;;;;;7.32;54.17;98984.25;5054991;28;20212;-71
2022/03/10 09:22:06;;;;;;;17.43;11.50;;;;;;;7.40;53.92;98980.38;5056071;28;20220;-71
2022/03/10 09:24:32;;;;;;;18.90;11.37;;;;;;;7.44;53.91;98971.44;5054774;28;20238;-72
2022/03/10 09:26:59;;;;;;;15.63;10.80;;;;;;;7.48;52.76;98977.41;5053587;28;20253;-72
2022/03/10 09:29:26;;;;;;;17.87;11.50;;;;;;;7.69;53.39;98971.22;5056802;28;20290;-73
2022/03/10 09:31:54;;;;;;;14.43;11.07;;;;;;;7.75;51.53;98969.16;5055296;28;20226;-77
2022/03/10 09:34:21;;;;;;;15.73;10.90;;;;;;;7.85;52.19;98964.34;5055514;28;20610;-73
2022/03/10 09:36:47;;;;;;;20.00;12.20;;;;;;;7.95;52.75;98958.59;5055025;28;20223;-75
2022/03/10 09:39:14;;;;;;;17.80;11.23;;;;;;;8.07;52.54;98967.69;5055132;28;20666;-74
2022/03/10 09:41:42;;;;;;;10.60;8.27;;;;;;;8.49;51.14;98958.69;5056014;28;21658;-75
2022/03/10 09:44:13;;;;;;;13.07;8.73;;;;;;;8.79;50.38;98965.09;5054842;28;20244;-74
2022/03/10 09:46:40;;;;;;;10.53;7.80;;;;;;;9.00;49.27;98961.41;5054301;28;20212;-75
2022/03/10 09:49:08;;;;;;;11.90;7.70;;;;;;;9.26;48.28;98960.97;5056406;28;20212;-74
2022/03/10 09:51:34;;;;;;;9.20;7.03;;;;;;;9.51;47.50;98950.00;5055800;28;20219;-73
2022/03/10 09:54:01;;;;;;;10.93;7.03;;;;;;;9.70;46.24;98961.28;5052943;28;20223;-74
2022/03/10 09:56:28;;;;;;;10.63;7.20;;;;;;;9.80;46.77;98957.25;5055798;28;20219;-74
2022/03/10 09:58:54;;;;;;;10.20;7.30;;;;;;;9.94;46.41;98960.84;5056895;28;20220;-73
2022/03/10 10:01:21;;;;;;;11.17;7.20;;;;;;;10.12;45.36;98948.47;5056672;28;20246;-73
2022/03/10 10:03:47;;;;;;;8.23;6.40;;;;;;;10.29;45.19;98945.75;5055407;28;20240;-73
2022/03/10 10:06:16;;;;;;;9.20;6.30;;;;;;;10.39;43.80;98941.69;5055684;28;20315;-72
2022/03/10 10:08:43;;;;;;;10.10;6.43;;;;;;;10.54;44.41;98940.81;5056252;28;20216;-76
2022/03/10 10:11:15;;;;;;;9.53;6.47;;;;;;;10.80;43.03;98938.41;5057116;28;20218;-72
2022/03/10 10:13:43;;;;;;;8.50;6.00;;;;;;;10.86;43.78;98931.88;5055449;28;20704;-73
2022/03/10 10:16:12;;;;;;;8.97;6.37;;;;;;;10.94;43.68;98927.03;5055420;28;20725;-73
2022/03/10 10:18:41;;;;;;;7.87;5.80;;;;;;;11.05;43.33;98921.94;5053387;28;20212;-73
2022/03/10 10:21:10;;;;;;;8.37;5.73;;;;;;;11.31;41.84;98915.97;5055198;28;20218;-74
2022/03/10 10:23:40;;;;;;;9.17;6.40;;;;;;;11.50;42.40;98913.94;5055342;28;20233;-74
2022/03/10 10:26:09;;;;;;;6.60;5.20;;;;;;;11.55;41.14;98912.69;5055484;28;20219;-73
2022/03/10 10:28:37;;;;;;;5.67;4.70;;;;;;;11.71;40.83;98904.69;5057932;28;20757;-73
2022/03/10 10:31:07;;;;;;;7.40;5.07;;;;;;;11.82;39.82;98899.59;5055307;28;20218;-72
2022/03/10 10:33:35;;;;;;;7.10;5.53;;;;;;;11.92;40.42;98903.38;5055244;28;20226;-73
2022/03/10 10:36:15;;;;;;;5.77;4.67;;;;;;;12.04;39.94;98897.31;5055361;28;20225;-74
2022/03/10 10:38:45;;;;;;;7.70;4.83;;;;;;;12.20;39.96;98896.25;5055113;28;20598;-74
2022/03/10 10:41:20;;;;;;;6.30;4.30;;;;;;;12.33;38.79;98883.03;5055634;28;20249;-74
2022/03/10 10:43:49;;;;;;;5.67;4.30;;;;;;;12.55;38.69;98886.00;5055238;28;20241;-73
2022/03/10 10:46:34;;;;;;;7.60;4.07;;;;;;;12.60;36.93;98879.44;5055761;28;20726;-75
2022/03/10 10:49:02;;;;;;;5.87;4.20;;;;;;;12.67;38.83;98875.47;5048273;28;20212;-74
2022/03/10 10:51:32;;;;;;;5.17;3.40;;;;;;;12.96;38.02;98871.75;5059263;28;20221;-74
2022/03/10 10:54:01;;;;;;;4.03;3.23;;;;;;;13.20;36.92;98879.88;5060170;28;20228;-76
2022/03/10 10:56:28;;;;;;;4.30;3.20;;;;;;;13.25;36.27;98872.41;5059964;28;20225;-74
2022/03/10 10:58:55;;;;;;;5.63;3.57;;;;;;;13.32;36.36;98874.56;5057558;28;20724;-74
2022/03/10 11:01:34;;;;;;;5.13;3.07;;;;;;;13.49;35.36;98871.59;5057768;28;20247;-75
2022/03/10 11:04:01;;;;;;;3.90;3.20;;;;;;;13.33;34.78;98867.47;5059536;28;20249;-76
2022/03/10 11:06:28;;;;;;;4.17;3.10;;;;;;;13.46;35.60;98860.34;5057815;28;20219;-76
2022/03/10 11:08:54;;;;;;;3.33;2.90;;;;;;;13.57;35.14;98866.59;5057761;28;20218;-74
2022/03/10 11:11:23;;;;;;;3.90;2.87;;;;;;;13.61;35.46;98861.91;5055808;28;20216;-74
2022/03/10 11:13:51;;;;;;;4.70;2.93;;;;;;;13.58;34.75;98855.00;5059753;28;20234;-74
2022/03/10 11:16:18;;;;;;;3.50;2.53;;;;;;;13.64;35.13;98853.75;5057387;28;20226;-74
2022/03/10 11:18:50;;;;;;;4.70;2.90;;;;;;;13.88;36.13;98847.53;5055708;28;20218;-76
2022/03/10 11:21:49;;;;;;;3.60;3.17;;;;;;;13.90;34.20;98845.66;5057531;28;20220;-74
2022/03/10 11:24:46;;;;;;;4.93;3.17;;;;;;;13.94;34.21;98851.59;5040811;28;20294;-75
2022/03/10 11:27:17;;;;;;;3.33;2.87;;;;;;;13.97;33.87;98846.03;5057038;28;20216;-74